createdAt,value
2019-03-09T00:00:34.661Z,23.91
2019-03-09T00:03:04.323Z,23.89
2019-03-09T00:05:33.944Z,23.90
2019-03-09T00:08:03.653Z,23.89
2019-03-09T00:10:33.263Z,23.89
2019-03-09T00:13:02.953Z,23.91
2019-03-09T00:15:32.620Z,23.90
2019-03-09T00:18:02.279Z,23.90
2019-03-09T00:20:31.992Z,23.91
2019-03-09T00:23:26.515Z,23.90
2019-03-09T00:26:27.063Z,23.90
2019-03-09T00:29:15.541Z,23.88
2019-03-09T00:31:50.298Z,23.88
2019-03-09T00:34:19.916Z,23.89
2019-03-09T00:36:49.639Z,23.89
2019-03-09T00:39:19.326Z,23.86
2019-03-09T00:41:48.952Z,23.87
2019-03-09T00:44:18.649Z,23.85
2019-03-09T00:46:48.265Z,23.87
2019-03-09T00:49:17.974Z,23.88
2019-03-09T00:51:47.585Z,23.91
2019-03-09T00:54:17.340Z,23.89
2019-03-09T00:56:46.990Z,23.88
2019-03-09T00:59:16.624Z,23.90
2019-03-09T01:01:46.315Z,23.90
2019-03-09T01:04:15.935Z,23.88
2019-03-09T01:06:45.677Z,23.89
2019-03-09T01:09:15.247Z,23.90
2019-03-09T01:11:44.957Z,23.89
2019-03-09T01:14:14.669Z,23.88
2019-03-09T01:16:44.372Z,23.87
2019-03-09T01:19:14.091Z,23.87
2019-03-09T01:21:43.707Z,23.91
2019-03-09T01:24:13.326Z,23.89
2019-03-09T01:26:42.938Z,23.87
2019-03-09T01:29:12.628Z,23.86
2019-03-09T01:31:42.260Z,23.88
2019-03-09T01:34:11.948Z,23.88
2019-03-09T01:36:41.654Z,23.87
2019-03-09T01:39:11.283Z,23.88
2019-03-09T01:41:40.968Z,23.86
2019-03-09T01:44:10.516Z,23.86
2019-03-09T01:46:40.095Z,23.84
2019-03-09T01:49:09.814Z,23.85
2019-03-09T01:51:39.497Z,23.86
2019-03-09T01:54:09.230Z,23.88
2019-03-09T01:56:38.858Z,23.86
2019-03-09T01:59:08.543Z,23.87
2019-03-09T02:01:38.159Z,23.89
2019-03-09T02:04:07.866Z,23.86
2019-03-09T02:06:37.484Z,23.86
2019-03-09T02:09:07.601Z,23.85
2019-03-09T02:11:37.208Z,23.83
2019-03-09T02:14:06.912Z,23.88
2019-03-09T02:16:36.527Z,23.85
2019-03-09T02:19:06.227Z,23.87
2019-03-09T02:21:35.932Z,23.82
2019-03-09T02:24:05.645Z,23.82
2019-03-09T02:26:35.362Z,23.82
2019-03-09T02:29:04.992Z,23.85
2019-03-09T02:31:34.579Z,23.86
2019-03-09T02:34:04.214Z,23.85
2019-03-09T02:36:33.898Z,23.85
2019-03-09T02:39:25.206Z,23.86
2019-03-09T02:41:54.829Z,23.87
2019-03-09T02:44:24.539Z,23.88
2019-03-09T02:46:54.253Z,23.86
2019-03-09T02:49:23.955Z,23.85
2019-03-09T02:51:53.580Z,23.86
2019-03-09T02:54:23.277Z,23.90
2019-03-09T02:56:52.897Z,23.85
2019-03-09T02:59:22.596Z,23.84
2019-03-09T03:02:11.073Z,23.82
2019-03-09T03:04:40.761Z,23.86
2019-03-09T03:07:10.382Z,23.84
2019-03-09T03:09:40.069Z,23.83
2019-03-09T03:12:09.701Z,23.85
2019-03-09T03:14:39.392Z,23.85
2019-03-09T03:17:09.107Z,23.85
2019-03-09T03:19:38.817Z,23.84
2019-03-09T03:22:08.538Z,23.87
2019-03-09T03:24:38.148Z,23.86
2019-03-09T03:27:07.857Z,23.83
2019-03-09T03:29:37.471Z,23.80
2019-03-09T03:32:07.167Z,23.79
2019-03-09T03:34:36.787Z,23.77
2019-03-09T03:37:06.493Z,23.78
2019-03-09T03:39:36.199Z,23.84
2019-03-09T03:42:05.916Z,23.79
2019-03-09T03:44:44.799Z,23.80
2019-03-09T03:47:15.912Z,23.79
2019-03-09T03:49:45.652Z,23.81
2019-03-09T03:52:15.216Z,23.82
2019-03-09T03:54:44.908Z,23.82
2019-03-09T03:57:14.537Z,23.82
2019-03-09T03:59:44.221Z,23.83
2019-03-09T04:02:13.942Z,23.81
2019-03-09T04:04:43.557Z,23.82
2019-03-09T04:07:13.274Z,23.83
2019-03-09T04:09:42.884Z,23.80
2019-03-09T04:12:12.579Z,23.80
2019-03-09T04:14:42.213Z,23.82
2019-03-09T04:17:11.899Z,23.79
2019-03-09T04:19:41.611Z,23.78
2019-03-09T04:22:11.347Z,23.80
2019-03-09T04:24:41.031Z,23.76
2019-03-09T04:27:10.700Z,23.76
2019-03-09T04:29:40.347Z,23.78
2019-03-09T04:32:09.979Z,23.78
2019-03-09T04:34:39.668Z,23.78
2019-03-09T04:37:09.293Z,23.79
2019-03-09T04:39:38.994Z,23.80
2019-03-09T04:42:08.779Z,23.80
2019-03-09T04:44:38.510Z,23.78
2019-03-09T04:47:08.123Z,23.82
2019-03-09T04:49:37.746Z,23.79
2019-03-09T04:52:07.439Z,23.81
2019-03-09T04:54:37.067Z,23.89
2019-03-09T04:57:06.754Z,23.84
2019-03-09T04:59:36.635Z,23.75
2019-03-09T05:02:06.296Z,23.73
2019-03-09T05:04:52.459Z,23.61
2019-03-09T05:07:36.935Z,23.60
2019-03-09T05:10:13.368Z,23.48
2019-03-09T05:12:42.985Z,23.51
2019-03-09T05:15:13.388Z,23.49
2019-03-09T05:17:44.188Z,23.53
2019-03-09T05:20:13.886Z,23.50
2019-03-09T05:22:43.506Z,23.53
2019-03-09T05:25:13.421Z,23.46
2019-03-09T05:27:43.078Z,23.56
2019-03-09T05:30:13.904Z,22.68
2019-03-09T05:32:43.564Z,21.76
2019-03-09T05:35:13.190Z,21.32
2019-03-09T05:37:43.534Z,20.98
2019-03-09T05:40:13.556Z,20.63
2019-03-09T05:42:43.333Z,20.57
2019-03-09T05:45:13.299Z,20.38
2019-03-09T05:47:43.268Z,20.26
2019-03-09T05:50:13.967Z,20.19
2019-03-09T05:52:43.523Z,20.05
2019-03-09T05:55:17.893Z,20.04
2019-03-09T05:57:47.466Z,19.96
2019-03-09T06:00:19.462Z,19.82
2019-03-09T06:02:49.551Z,19.83
2019-03-09T06:05:30.570Z,19.80
2019-03-09T06:08:00.245Z,19.79
2019-03-09T06:10:29.926Z,19.80
2019-03-09T06:12:59.625Z,19.75
2019-03-09T06:15:30.558Z,20.36
2019-03-09T06:18:00.462Z,21.24
2019-03-09T06:20:30.148Z,21.61
2019-03-09T06:22:59.812Z,21.85
2019-03-09T06:25:30.816Z,22.05
2019-03-09T06:28:00.640Z,22.15
2019-03-09T06:30:30.549Z,22.28
2019-03-09T06:33:22.210Z,22.40
2019-03-09T06:36:30.519Z,22.47
2019-03-09T06:39:20.921Z,22.53
2019-03-09T06:42:10.800Z,22.53
2019-03-09T06:44:40.436Z,22.55
2019-03-09T06:47:10.121Z,22.60
2019-03-09T06:49:39.756Z,22.60
2019-03-09T06:52:09.432Z,22.62
2019-03-09T06:54:39.072Z,22.68
2019-03-09T06:57:13.919Z,22.71
2019-03-09T06:59:40.236Z,22.71
2019-03-09T07:02:10.425Z,22.75
2019-03-09T07:04:40.060Z,22.78
2019-03-09T07:07:09.745Z,22.79
2019-03-09T07:09:39.370Z,22.81
2019-03-09T07:12:09.059Z,22.84
2019-03-09T07:15:13.799Z,22.85
2019-03-09T07:17:43.419Z,22.88
2019-03-09T07:20:13.233Z,22.87
2019-03-09T07:22:42.857Z,22.89
2019-03-09T07:25:12.550Z,22.92
2019-03-09T07:27:42.173Z,22.93
2019-03-09T07:30:14.946Z,22.95
2019-03-09T07:32:44.532Z,22.97
2019-03-09T07:35:14.175Z,22.98
2019-03-09T07:37:43.856Z,22.97
2019-03-09T07:40:13.508Z,22.98
2019-03-09T07:42:43.171Z,23.01
2019-03-09T07:45:13.545Z,23.00
2019-03-09T07:47:43.206Z,23.02
2019-03-09T07:50:13.105Z,23.05
2019-03-09T07:52:42.841Z,23.03
2019-03-09T07:55:14.041Z,23.06
2019-03-09T07:57:43.704Z,23.08
2019-03-09T08:00:15.100Z,23.09
2019-03-09T08:02:44.758Z,23.11
2019-03-09T08:05:14.407Z,23.12
2019-03-09T08:07:44.161Z,23.15
2019-03-09T08:10:18.335Z,23.18
2019-03-09T08:12:48.005Z,23.19
2019-03-09T08:15:18.275Z,23.18
2019-03-09T08:17:55.867Z,23.25
2019-03-09T08:20:25.677Z,23.21
2019-03-09T08:22:55.345Z,23.24
2019-03-09T08:25:25.073Z,23.25
2019-03-09T08:27:54.794Z,23.25
2019-03-09T08:30:24.627Z,23.27
2019-03-09T08:32:54.297Z,23.28
2019-03-09T08:35:23.924Z,23.30
2019-03-09T08:37:53.933Z,23.32
2019-03-09T08:40:23.633Z,23.29
2019-03-09T08:42:53.351Z,23.34
2019-03-09T08:45:22.983Z,23.32
2019-03-09T08:47:53.154Z,23.32
2019-03-09T08:50:23.048Z,23.35
2019-03-09T08:52:52.660Z,23.37
2019-03-09T08:55:22.324Z,23.36
2019-03-09T08:57:52.059Z,23.41
2019-03-09T09:00:26.693Z,23.42
2019-03-09T09:02:56.280Z,23.41
2019-03-09T09:05:25.974Z,23.41
2019-03-09T09:07:55.686Z,23.44
2019-03-09T09:10:25.319Z,23.47
2019-03-09T09:12:54.994Z,23.47
2019-03-09T09:15:24.627Z,23.47
2019-03-09T09:17:54.311Z,23.49
2019-03-09T09:20:24.160Z,23.48
2019-03-09T09:22:53.836Z,23.52
2019-03-09T09:25:23.483Z,23.54
2019-03-09T09:27:53.155Z,23.56
2019-03-09T09:30:24.862Z,23.55
2019-03-09T09:32:54.565Z,23.56
2019-03-09T09:35:24.151Z,23.59
2019-03-09T09:37:54.045Z,23.58
2019-03-09T09:40:23.926Z,23.61
2019-03-09T09:42:53.569Z,23.60
2019-03-09T09:45:23.200Z,23.57
2019-03-09T09:47:52.890Z,23.57
2019-03-09T09:50:22.603Z,23.60
2019-03-09T09:52:52.310Z,23.57
2019-03-09T09:55:22.034Z,23.58
2019-03-09T09:57:51.663Z,23.57
2019-03-09T10:00:23.150Z,23.57
2019-03-09T10:02:52.904Z,23.61
2019-03-09T10:05:22.607Z,23.64
2019-03-09T10:07:52.353Z,23.60
2019-03-09T10:10:22.080Z,23.61
2019-03-09T10:12:51.654Z,23.62
2019-03-09T10:15:23.228Z,23.62
2019-03-09T10:17:52.827Z,23.63
2019-03-09T10:20:22.463Z,23.61
2019-03-09T10:22:52.041Z,23.62
2019-03-09T10:25:21.726Z,23.60
2019-03-09T10:27:51.445Z,23.60
2019-03-09T10:30:21.918Z,23.61
2019-03-09T10:32:51.578Z,23.61
2019-03-09T10:35:21.307Z,23.63
2019-03-09T10:37:50.921Z,23.65
2019-03-09T10:40:21.028Z,23.63
2019-03-09T10:42:50.638Z,23.67
2019-03-09T10:45:20.242Z,23.67
2019-03-09T10:47:49.866Z,23.71
2019-03-09T10:50:19.581Z,23.70
2019-03-09T10:52:49.239Z,23.78
2019-03-09T10:55:20.373Z,23.86
2019-03-09T10:57:50.192Z,23.88
2019-03-09T11:00:27.810Z,23.86
2019-03-09T11:02:57.460Z,23.86
2019-03-09T11:05:27.138Z,23.92
2019-03-09T11:07:56.847Z,23.94
2019-03-09T11:10:26.593Z,23.94
2019-03-09T11:12:56.273Z,23.93
2019-03-09T11:15:25.949Z,23.93
2019-03-09T11:17:55.587Z,23.94
2019-03-09T11:20:25.219Z,23.98
2019-03-09T11:22:54.918Z,24.01
2019-03-09T11:25:24.674Z,24.06
2019-03-09T11:27:54.330Z,24.10
2019-03-09T11:30:25.328Z,24.13
2019-03-09T11:32:54.914Z,24.18
2019-03-09T11:35:24.590Z,24.22
2019-03-09T11:37:54.306Z,24.17
2019-03-09T11:40:23.942Z,24.13
2019-03-09T11:42:53.635Z,24.16
2019-03-09T11:45:23.278Z,24.10
2019-03-09T11:47:52.948Z,24.20
2019-03-09T11:50:22.494Z,24.22
2019-03-09T11:52:52.104Z,24.11
2019-03-09T11:55:21.769Z,24.08
2019-03-09T11:57:51.399Z,24.07
2019-03-09T12:00:25.118Z,24.07
2019-03-09T12:02:54.793Z,24.06
2019-03-09T12:05:24.437Z,24.09
2019-03-09T12:07:54.108Z,24.10
2019-03-09T12:10:23.734Z,24.08
2019-03-09T12:12:53.440Z,24.10
2019-03-09T12:15:23.151Z,24.09
2019-03-09T12:17:52.865Z,24.11
2019-03-09T12:20:23.779Z,24.12
2019-03-09T12:23:01.057Z,24.11
2019-03-09T12:25:24.862Z,24.11
2019-03-09T12:27:54.480Z,24.10
2019-03-09T12:30:24.180Z,24.09
2019-03-09T12:32:53.882Z,24.11
2019-03-09T12:35:23.601Z,24.07
2019-03-09T12:37:53.375Z,24.07
2019-03-09T12:40:23.123Z,24.05
2019-03-09T12:42:52.829Z,24.04
2019-03-09T12:45:22.468Z,24.03
2019-03-09T12:47:52.160Z,24.03
2019-03-09T12:50:21.785Z,24.03
2019-03-09T12:52:51.461Z,24.06
2019-03-09T12:55:21.207Z,24.14
2019-03-09T12:57:50.898Z,24.16
2019-03-09T13:00:20.667Z,24.14
2019-03-09T13:02:50.385Z,24.12
2019-03-09T13:05:20.119Z,24.01
2019-03-09T13:07:49.751Z,24.08
2019-03-09T13:10:19.550Z,24.04
2019-03-09T13:12:49.162Z,24.16
2019-03-09T13:15:18.870Z,24.23
2019-03-09T13:17:48.605Z,24.33
2019-03-09T13:20:18.296Z,24.34
2019-03-09T13:22:47.909Z,24.34
2019-03-09T13:25:17.630Z,24.37
2019-03-09T13:27:47.317Z,24.42
2019-03-09T13:30:18.764Z,24.34
2019-03-09T13:32:48.371Z,24.41
2019-03-09T13:35:17.995Z,24.46
2019-03-09T13:37:47.700Z,24.56
2019-03-09T13:40:17.238Z,24.69
2019-03-09T13:42:46.911Z,24.78
2019-03-09T13:45:16.534Z,24.60
2019-03-09T13:47:46.261Z,24.53
2019-03-09T13:50:15.869Z,24.46
2019-03-09T13:52:45.471Z,24.35
2019-03-09T13:55:15.159Z,24.33
2019-03-09T13:57:44.796Z,24.29
2019-03-09T14:00:15.244Z,24.30
2019-03-09T14:02:44.913Z,24.33
2019-03-09T14:05:14.659Z,24.35
2019-03-09T14:07:44.332Z,24.34
2019-03-09T14:10:14.147Z,24.32
2019-03-09T14:12:43.862Z,24.31
2019-03-09T14:15:14.427Z,24.32
2019-03-09T14:17:44.097Z,24.29
2019-03-09T14:20:13.728Z,24.29
2019-03-09T14:22:43.429Z,24.30
2019-03-09T14:25:13.121Z,24.29
2019-03-09T14:27:42.840Z,24.29
2019-03-09T14:30:13.945Z,24.31
2019-03-09T14:32:43.596Z,24.30
2019-03-09T14:35:13.292Z,24.31
2019-03-09T14:37:43.019Z,24.30
2019-03-09T14:40:12.843Z,24.29
2019-03-09T14:42:42.535Z,24.28
2019-03-09T14:45:14.746Z,24.41
2019-03-09T14:47:44.446Z,24.53
2019-03-09T14:50:14.023Z,24.49
2019-03-09T14:52:43.753Z,24.46
2019-03-09T14:55:13.373Z,24.49
2019-03-09T14:57:43.065Z,24.58
2019-03-09T15:00:15.626Z,24.60
2019-03-09T15:02:45.301Z,24.67
2019-03-09T15:05:14.945Z,24.55
2019-03-09T15:07:44.684Z,24.58
2019-03-09T15:10:14.397Z,24.57
2019-03-09T15:12:43.994Z,24.53
2019-03-09T15:15:13.896Z,24.45
2019-03-09T15:17:43.630Z,24.51
2019-03-09T15:20:13.377Z,24.51
2019-03-09T15:22:42.939Z,24.50
2019-03-09T15:25:13.054Z,24.56
2019-03-09T15:27:42.654Z,24.44
2019-03-09T15:30:13.743Z,24.34
2019-03-09T15:32:43.405Z,24.32
2019-03-09T15:35:13.049Z,24.26
2019-03-09T15:37:42.736Z,24.23
2019-03-09T15:40:12.590Z,24.21
2019-03-09T15:42:42.250Z,24.22
2019-03-09T15:45:12.276Z,24.18
2019-03-09T15:47:41.989Z,24.15
2019-03-09T15:50:12.351Z,24.15
2019-03-09T15:52:41.937Z,24.15
2019-03-09T15:55:11.620Z,24.13
2019-03-09T15:57:41.257Z,24.13
2019-03-09T16:00:14.068Z,24.14
2019-03-09T16:02:43.839Z,24.15
2019-03-09T16:05:13.541Z,24.15
2019-03-09T16:07:43.283Z,24.16
2019-03-09T16:10:13.927Z,24.16
2019-03-09T16:12:43.702Z,24.16
2019-03-09T16:15:14.083Z,24.17
2019-03-09T16:17:43.840Z,24.16
2019-03-09T16:20:15.240Z,24.14
2019-03-09T16:22:44.914Z,24.16
2019-03-09T16:25:14.520Z,24.13
2019-03-09T16:27:44.233Z,24.11
2019-03-09T16:30:16.147Z,24.12
2019-03-09T16:32:45.797Z,24.13
2019-03-09T16:35:15.502Z,24.19
2019-03-09T16:37:45.200Z,24.19
2019-03-09T16:40:15.461Z,24.20
2019-03-09T16:42:45.051Z,24.29
2019-03-09T16:45:14.809Z,24.25
2019-03-09T16:47:44.385Z,24.27
2019-03-09T16:50:14.068Z,24.29
2019-03-09T16:52:43.745Z,24.29
2019-03-09T16:55:13.396Z,24.30
2019-03-09T16:57:43.219Z,24.28
2019-03-09T17:00:15.554Z,24.18
2019-03-09T17:02:45.353Z,24.25
2019-03-09T17:05:15.353Z,24.29
2019-03-09T17:07:45.031Z,24.34
2019-03-09T17:10:14.757Z,24.37
2019-03-09T17:12:44.446Z,24.40
2019-03-09T17:15:16.075Z,24.45
2019-03-09T17:17:45.851Z,24.46
2019-03-09T17:20:15.729Z,24.39
2019-03-09T17:22:45.382Z,24.42
2019-03-09T17:25:16.396Z,24.44
2019-03-09T17:27:46.011Z,24.46
2019-03-09T17:30:16.807Z,24.48
2019-03-09T17:32:46.760Z,24.49
2019-03-09T17:35:16.449Z,24.50
2019-03-09T17:37:46.162Z,24.45
2019-03-09T17:40:15.992Z,24.46
2019-03-09T17:42:45.821Z,24.43
2019-03-09T17:45:19.364Z,24.38
2019-03-09T17:47:49.057Z,24.37
2019-03-09T17:50:19.626Z,24.50
2019-03-09T17:52:49.345Z,24.52
2019-03-09T17:55:18.794Z,24.52
2019-03-09T17:57:48.557Z,24.55
2019-03-09T18:00:20.387Z,24.57
2019-03-09T18:02:49.946Z,24.60
2019-03-09T18:05:20.141Z,24.57
2019-03-09T18:07:50.031Z,24.59
2019-03-09T18:10:23.258Z,24.58
2019-03-09T18:12:52.892Z,24.59
2019-03-09T18:15:22.619Z,24.58
2019-03-09T18:17:52.195Z,24.60
2019-03-09T18:20:21.938Z,24.57
2019-03-09T18:22:51.542Z,24.57
2019-03-09T18:25:21.215Z,24.59
2019-03-09T18:27:50.851Z,24.55
2019-03-09T18:30:20.531Z,24.60
2019-03-09T18:32:50.285Z,24.57
2019-03-09T18:35:19.871Z,24.57
2019-03-09T18:37:49.559Z,24.60
2019-03-09T18:40:19.298Z,24.55
2019-03-09T18:42:48.877Z,24.48
2019-03-09T18:45:18.603Z,24.50
2019-03-09T18:47:48.350Z,24.52
2019-03-09T18:50:17.923Z,24.56
2019-03-09T18:52:47.550Z,24.56
2019-03-09T18:55:17.234Z,24.59
2019-03-09T18:57:46.859Z,24.59
2019-03-09T19:00:17.591Z,24.58
2019-03-09T19:02:47.387Z,24.59
2019-03-09T19:05:17.017Z,24.61
2019-03-09T19:07:46.708Z,24.66
2019-03-09T19:10:16.483Z,24.75
2019-03-09T19:12:46.235Z,24.75
2019-03-09T19:15:15.949Z,24.76
2019-03-09T19:17:45.658Z,24.72
2019-03-09T19:20:15.368Z,24.73
2019-03-09T19:22:45.013Z,24.70
2019-03-09T19:25:14.692Z,24.74
2019-03-09T19:27:44.306Z,24.70
2019-03-09T19:30:15.296Z,24.75
2019-03-09T19:32:45.063Z,24.75
2019-03-09T19:35:14.768Z,24.77
2019-03-09T19:37:44.471Z,24.75
2019-03-09T19:40:14.846Z,24.70
2019-03-09T19:42:44.485Z,24.70
2019-03-09T19:45:14.586Z,24.70
2019-03-09T19:47:44.303Z,24.69
2019-03-09T19:50:15.947Z,24.75
2019-03-09T19:52:45.533Z,24.76
2019-03-09T19:55:15.145Z,24.76
2019-03-09T19:57:44.805Z,24.74
2019-03-09T20:00:14.972Z,24.68
2019-03-09T20:02:44.622Z,24.63
2019-03-09T20:05:14.289Z,24.75
2019-03-09T20:07:43.978Z,24.72
2019-03-09T20:10:14.162Z,24.67
2019-03-09T20:12:43.574Z,24.63
2019-03-09T20:15:13.965Z,24.62
2019-03-09T20:17:45.766Z,24.58
2019-03-09T20:20:15.127Z,24.48
2019-03-09T20:22:44.846Z,24.62
2019-03-09T20:25:14.461Z,24.65
2019-03-09T20:27:44.156Z,24.68
2019-03-09T20:30:14.193Z,24.66
2019-03-09T20:32:43.885Z,24.65
2019-03-09T20:35:13.501Z,24.60
2019-03-09T20:37:43.261Z,24.61
2019-03-09T20:40:13.160Z,24.62
2019-03-09T20:42:42.831Z,24.65
2019-03-09T20:45:14.665Z,24.64
2019-03-09T20:47:44.609Z,24.63
2019-03-09T20:50:15.276Z,24.61
2019-03-09T20:52:44.958Z,24.58
2019-03-09T20:55:14.660Z,24.59
2019-03-09T20:57:44.410Z,24.55
2019-03-09T21:00:15.856Z,24.54
2019-03-09T21:02:45.531Z,24.53
2019-03-09T21:05:15.247Z,24.50
2019-03-09T21:07:44.957Z,24.50
2019-03-09T21:10:15.681Z,24.50
2019-03-09T21:13:13.680Z,24.47
2019-03-09T21:15:43.384Z,24.45
2019-03-09T21:18:13.002Z,24.45
2019-03-09T21:20:42.698Z,24.48
2019-03-09T21:23:12.314Z,24.44
2019-03-09T21:25:42.017Z,24.39
2019-03-09T21:28:11.631Z,24.38
2019-03-09T21:30:41.370Z,24.41
2019-03-09T21:33:11.037Z,24.34
2019-03-09T21:35:40.757Z,24.36
2019-03-09T21:38:10.470Z,24.34
2019-03-09T21:40:40.103Z,24.40
2019-03-09T21:43:09.781Z,24.40
2019-03-09T21:45:39.411Z,24.37
2019-03-09T21:48:09.106Z,24.38
2019-03-09T21:50:38.733Z,24.39
2019-03-09T21:53:08.480Z,24.34
2019-03-09T21:55:38.239Z,24.31
2019-03-09T21:58:07.946Z,24.34
2019-03-09T22:00:37.656Z,24.32
2019-03-09T22:03:07.278Z,24.30
2019-03-09T22:05:36.982Z,24.31
2019-03-09T22:08:06.629Z,24.30
2019-03-09T22:10:36.299Z,24.27
2019-03-09T22:13:05.918Z,24.31
2019-03-09T22:15:35.623Z,24.29
2019-03-09T22:18:05.323Z,24.28
2019-03-09T22:20:35.092Z,24.26
2019-03-09T22:23:04.746Z,24.28
2019-03-09T22:25:34.368Z,24.25
2019-03-09T22:28:03.997Z,24.26
2019-03-09T22:30:33.606Z,24.23
2019-03-09T22:33:04.691Z,24.26
2019-03-09T22:35:34.546Z,24.29
2019-03-09T22:38:04.252Z,24.30
2019-03-09T22:40:33.953Z,24.26
2019-03-09T22:43:03.674Z,24.27
2019-03-09T22:45:33.373Z,24.30
2019-03-09T22:48:03.054Z,24.31
2019-03-09T22:50:32.799Z,24.29
2019-03-09T22:53:02.425Z,24.35
2019-03-09T22:55:32.024Z,24.31
2019-03-09T22:58:01.638Z,24.28
2019-03-09T23:00:31.425Z,24.24
2019-03-09T23:03:01.047Z,24.27
2019-03-09T23:05:30.753Z,24.19
2019-03-09T23:08:00.468Z,24.19
2019-03-09T23:10:30.088Z,24.19
2019-03-09T23:12:59.794Z,24.13
2019-03-09T23:15:29.404Z,24.18
2019-03-09T23:17:59.110Z,24.17
2019-03-09T23:20:28.731Z,24.17
2019-03-09T23:22:58.429Z,24.16
2019-03-09T23:25:28.133Z,24.15
2019-03-09T23:27:57.759Z,24.17
2019-03-09T23:30:27.472Z,24.10
2019-03-09T23:32:57.093Z,24.12
2019-03-09T23:35:26.777Z,24.09
2019-03-09T23:37:56.390Z,24.06
2019-03-09T23:40:26.096Z,24.08
2019-03-09T23:42:55.809Z,24.05
2019-03-09T23:45:25.522Z,24.06
2019-03-09T23:47:55.227Z,24.01
2019-03-09T23:50:24.864Z,24.02
2019-03-09T23:52:54.541Z,24.02
2019-03-09T23:55:24.188Z,24.06
2019-03-09T23:57:53.963Z,24.01
